METAR AND TAF INFORMATION
METAR FOR UAAT
ADDS - METARS form results

(0925 UTC 22 July 2019)
Data provider http://aviationweather.gov/metar/data/
 
METAR text: UAAT 220900Z 19005MPS 160V220 9999 SCT050CB BKN100 34/06 Q1005 R02/CLRD65 NOSIG RMK QFE703/0938
Conditions at: UAAT (TALDY KURGAN , KZ) observed 0900 UTC 22 July 2019
Temperature: 34.0°C (93°F)
Dewpoint: 6.0°C (43°F) [RH = 18%]
Pressure (altimeter): 29.68 inches Hg (1005.0 mb)
Winds: from the S (190 degrees) at 12 MPH (10 knots; 5.1 m/s)
Visibility: 6 or more miles (10+ km)
Ceiling: 10000 feet AGL
Clouds: scattered clouds at 5000 feet AGL
broken clouds at 10000 feet AGL
Weather: no significant weather observed at this time

METAR text: UAAT 220830Z 20006MPS 9999 SCT050CB BKN100 33/07 Q1006 R02/CLRD65 NOSIG RMK QFE703/0938
Conditions at: UAAT (TALDY KURGAN , KZ) observed 0830 UTC 22 July 2019
Temperature: 33.0°C (91°F)
Dewpoint: 7.0°C (45°F) [RH = 20%]
Pressure (altimeter): 29.70 inches Hg (1006.0 mb)
Winds: from the SSW (200 degrees) at 14 MPH (12 knots; 6.2 m/s)
Visibility: 6 or more miles (10+ km)
Ceiling: 10000 feet AGL
Clouds: scattered clouds at 5000 feet AGL
broken clouds at 10000 feet AGL
Weather: no significant weather observed at this time

Forecast for: UAAT (TALDY KURGAN , KZ)
Text: TAF UAAT 220804Z 2209/2218 24005MPS 9999 BKN050CB BKN100
Forecast period: 0900 to 1800 UTC 22 July 2019
Forecast type: FROM: standard forecast or significant change
Winds: from the WSW (240 degrees) at 12 MPH (10 knots; 5.1 m/s)
Visibility: 6 or more miles 10+ km)
Ceiling: 5000 feet AGL
Clouds: broken clouds at 5000 feet AGL
broken clouds at 10000 feet AGL
Weather: no significant weather forecast for this period
Text: TEMPO 2209/2215 20005G10MPS -SHRA
Forecast period: 0900 to 1500 UTC 22 July 2019
Forecast type: TEMPORARY: The following changes expected for less than half the time period
Winds: from the SSW (200 degrees) at 12 MPH (10 knots; 5.1 m/s)
gusting to 22 MPH (19 knots; 9.8 m/s)
Visibility: missing
Ceiling: unknown
Clouds: missing
Weather: -SHRA  (light rain showers)
Text: PROB40
Forecast period: 0900 to 1500 UTC 22 July 2019
Forecast type: TEMPORARY: The following changes expected for less than half the time period
Visibility: missing
Ceiling: unknown
Clouds: missing
Weather: TS  (thunderstorm)

 AIRPORT MAP

 RUNWAY INFORMATION

 AIRPORT FREQUENCIES

 AIRPORT NEAR NAVIGATION AIDS



2018 Air Astana Virtual Airline